Time;durP1;ratioP1;P1;durP2;ratioP2;P2;SDS_P1;SDS_P2;PMS_P1;PMS_P2;Temp;Humidity;BMP_temperature;BMP_pressure;BME280_temperature;BME280_humidity;BME280_pressure;Samples;Min_cycle;Max_cycle;Signal;HPM_P1;HPM_P2
2021/10/19 00:02:06;;;;;;;20.37;11.50;;;;;;;10.31;73.05;101402.17;1780196;80;21004;-82
2021/10/19 00:04:32;;;;;;;20.65;11.08;;;;;;;10.28;73.03;101393.94;1780427;80;21564;-83
2021/10/19 00:06:58;;;;;;;21.37;10.82;;;;;;;10.26;73.01;101395.92;1780175;80;21110;-83
2021/10/19 00:09:24;;;;;;;19.98;12.28;;;;;;;10.24;73.00;101403.20;1780335;80;21007;-83
2021/10/19 00:11:50;;;;;;;18.55;11.63;;;;;;;10.22;73.00;101403.86;1780202;80;21003;-82
2021/10/19 00:14:16;;;;;;;23.77;13.45;;;;;;;10.20;73.01;101404.50;1780306;80;21038;-83
2021/10/19 00:16:42;;;;;;;20.00;12.28;;;;;;;10.16;73.00;101399.11;1780359;80;21039;-83
2021/10/19 00:19:08;;;;;;;17.60;12.37;;;;;;;10.13;73.00;101388.70;1780237;80;21552;-83
2021/10/19 00:21:34;;;;;;;21.77;12.65;;;;;;;10.11;73.03;101382.66;1780164;80;21612;-83
2021/10/19 00:24:00;;;;;;;22.65;12.23;;;;;;;10.10;73.04;101382.30;1780382;80;21627;-83
2021/10/19 00:26:26;;;;;;;20.62;11.93;;;;;;;10.06;73.05;101379.59;1757190;80;20964;-82
2021/10/19 00:28:52;;;;;;;22.93;12.95;;;;;;;10.02;73.04;101384.37;1754048;81;21024;-82
2021/10/19 00:31:18;;;;;;;21.23;12.35;;;;;;;9.99;73.07;101387.80;1754196;81;21126;-82
2021/10/19 00:33:44;;;;;;;30.57;16.87;;;;;;;9.92;73.09;101396.02;1753749;81;20990;-83
2021/10/19 00:36:11;;;;;;;19.82;11.80;;;;;;;9.86;73.08;101396.56;1744392;81;21082;-83
2021/10/19 00:38:37;;;;;;;19.45;11.35;;;;;;;9.81;73.11;101398.82;1694909;84;21063;-82
2021/10/19 00:41:03;;;;;;;15.75;10.38;;;;;;;9.79;73.12;101398.09;1694959;81;21008;-83
2021/10/19 00:43:29;;;;;;;18.40;10.38;;;;;;;9.73;73.13;101396.85;1695123;83;21988;-83
2021/10/19 00:45:55;;;;;;;26.00;12.68;;;;;;;9.69;73.13;101396.77;1695091;84;20987;-83
2021/10/19 00:48:24;;;;;;;18.45;10.65;;;;;;;9.66;73.15;101399.72;1695390;84;21055;-81
2021/10/19 00:50:49;;;;;;;22.58;11.40;;;;;;;9.62;73.21;101394.32;1695153;84;21532;-83
2021/10/19 00:53:15;;;;;;;21.17;13.28;;;;;;;9.57;73.21;101381.09;1695350;84;20995;-82
2021/10/19 00:55:41;;;;;;;16.45;9.88;;;;;;;9.53;73.23;101377.34;1698201;83;21135;-82
2021/10/19 00:58:08;;;;;;;19.42;11.88;;;;;;;9.50;73.24;101380.28;1693651;83;21047;-83
2021/10/19 01:00:35;;;;;;;21.60;12.55;;;;;;;9.47;73.29;101373.06;1693687;84;21054;-83
2021/10/19 01:03:01;;;;;;;19.80;10.70;;;;;;;9.44;73.29;101378.19;1722578;83;21028;-83
2021/10/19 01:05:27;;;;;;;19.70;11.43;;;;;;;9.39;73.31;101385.73;1693785;83;21005;-83
2021/10/19 01:07:53;;;;;;;17.77;11.65;;;;;;;9.36;73.33;101380.69;1693226;84;21176;-83
2021/10/19 01:10:19;;;;;;;20.45;11.15;;;;;;;9.32;73.35;101379.28;1722668;83;21019;-83
2021/10/19 01:12:46;;;;;;;18.02;11.12;;;;;;;9.29;73.39;101370.23;1693136;84;21015;-83
2021/10/19 01:15:15;;;;;;;19.45;10.93;;;;;;;9.26;73.42;101365.20;1722620;83;21609;-83
2021/10/19 01:17:45;;;;;;;19.55;10.98;;;;;;;9.24;73.43;101363.17;1693780;84;21043;-83
2021/10/19 01:20:26;;;;;;;21.50;11.95;;;;;;;9.21;73.47;101364.78;1714655;83;21231;-83
2021/10/19 01:22:54;;;;;;;22.02;11.97;;;;;;;9.20;73.48;101361.77;1719730;83;21032;-83
2021/10/19 01:25:22;;;;;;;17.45;11.30;;;;;;;9.18;73.49;101353.09;1700385;83;21571;-83
2021/10/19 01:27:52;;;;;;;18.85;11.33;;;;;;;9.17;73.52;101355.39;1782357;80;21281;-83
2021/10/19 01:30:18;;;;;;;19.10;11.03;;;;;;;9.14;73.53;101351.68;1807012;78;21016;-82
2021/10/19 01:32:44;;;;;;;21.05;10.43;;;;;;;9.13;73.53;101360.62;1815707;79;20997;-82
2021/10/19 01:35:10;;;;;;;19.90;11.80;;;;;;;9.09;73.54;101355.22;1815965;79;21011;-82
2021/10/19 01:37:36;;;;;;;23.12;11.03;;;;;;;9.07;73.57;101357.20;1816057;79;21002;-82
2021/10/19 01:40:10;;;;;;;32.05;13.18;;;;;;;9.06;73.59;101348.84;1815647;78;21055;-82
2021/10/19 01:42:36;;;;;;;21.95;12.05;;;;;;;9.04;73.62;101345.50;1815283;79;20957;-83
2021/10/19 01:45:03;;;;;;;19.07;10.98;;;;;;;9.01;73.65;101355.06;1816022;79;21820;-83
2021/10/19 01:47:29;;;;;;;16.87;11.28;;;;;;;8.98;73.66;101349.53;1815815;79;20960;-83
2021/10/19 01:49:55;;;;;;;17.98;10.90;;;;;;;8.95;73.70;101347.62;1815966;79;20941;-83
2021/10/19 01:52:21;;;;;;;15.30;10.63;;;;;;;8.95;73.75;101344.48;1815895;79;21488;-82
2021/10/19 01:54:47;;;;;;;22.77;11.83;;;;;;;8.96;73.75;101345.33;1816064;79;21457;-82
2021/10/19 01:57:13;;;;;;;20.27;11.73;;;;;;;8.96;73.78;101346.17;1816148;79;21893;-83
2021/10/19 01:59:39;;;;;;;18.30;11.22;;;;;;;8.95;73.81;101337.84;1749197;82;21050;-83
2021/10/19 02:02:05;;;;;;;18.15;11.35;;;;;;;8.94;73.83;101348.59;1749325;82;21519;-82
2021/10/19 02:04:31;;;;;;;17.75;10.72;;;;;;;8.90;73.82;101347.21;1749478;82;21503;-83
2021/10/19 02:06:57;;;;;;;16.73;10.72;;;;;;;8.87;73.87;101346.13;1749351;82;21039;-83
2021/10/19 02:09:23;;;;;;;19.87;12.15;;;;;;;8.84;73.92;101337.94;1793840;80;21011;-83
2021/10/19 02:11:49;;;;;;;20.27;11.03;;;;;;;8.82;73.95;101342.56;1793864;79;21000;-83
2021/10/19 02:14:15;;;;;;;22.10;11.70;;;;;;;8.81;73.97;101341.36;1793979;80;20916;-83
2021/10/19 02:16:41;;;;;;;24.63;13.70;;;;;;;8.79;74.02;101348.64;1793757;80;21472;-83
2021/10/19 02:19:07;;;;;;;25.50;14.28;;;;;;;8.75;74.04;101343.23;1819487;78;20960;-82
2021/10/19 02:21:34;;;;;;;20.32;12.78;;;;;;;8.72;74.08;101344.84;1785493;80;39272;-83
2021/10/19 02:24:00;;;;;;;17.52;11.15;;;;;;;8.70;74.11;101351.61;1792348;79;21000;-82
2021/10/19 02:26:26;;;;;;;20.75;12.00;;;;;;;8.68;74.15;101343.42;1748902;81;21086;-82
2021/10/19 02:28:52;;;;;;;19.82;11.40;;;;;;;8.65;74.17;101342.37;1749373;82;20992;-82
2021/10/19 02:31:18;;;;;;;21.90;10.85;;;;;;;8.63;74.22;101348.29;1749310;82;21054;-83
2021/10/19 02:33:44;;;;;;;22.62;12.07;;;;;;;8.60;74.25;101347.23;1749138;82;21630;-82
2021/10/19 02:36:10;;;;;;;17.90;11.83;;;;;;;8.58;74.26;101350.53;1749385;82;21054;-82
2021/10/19 02:38:36;;;;;;;21.87;13.58;;;;;;;8.57;74.32;101350.16;1749184;82;21042;-83
2021/10/19 02:41:02;;;;;;;21.57;12.30;;;;;;;8.57;74.36;101352.34;1748767;82;21035;-83
2021/10/19 02:43:28;;;;;;;20.62;13.03;;;;;;;8.55;74.37;101352.13;1749197;82;21000;-83
2021/10/19 02:45:54;;;;;;;19.30;12.10;;;;;;;8.51;74.41;101348.38;1749430;82;21142;-83
2021/10/19 02:48:21;;;;;;;21.42;11.53;;;;;;;8.51;74.45;101345.72;1749247;82;21006;-83
2021/10/19 02:50:47;;;;;;;20.27;12.05;;;;;;;8.52;74.46;101343.42;1816198;79;20991;-83
2021/10/19 02:53:13;;;;;;;21.05;12.80;;;;;;;8.50;74.50;101344.06;1816177;79;21113;-83
2021/10/19 02:55:39;;;;;;;24.82;13.00;;;;;;;8.50;74.57;101337.41;1813010;79;20963;-83
2021/10/19 02:58:05;;;;;;;21.57;12.25;;;;;;;8.50;74.57;101337.41;1720024;83;21179;-83
2021/10/19 03:00:31;;;;;;;23.85;12.50;;;;;;;8.48;74.56;101340.67;1719431;83;21503;-83
2021/10/19 03:02:57;;;;;;;17.17;11.63;;;;;;;8.45;74.59;101346.27;1784112;80;21635;-83
2021/10/19 03:05:23;;;;;;;24.07;12.78;;;;;;;8.43;74.65;101340.25;1784028;80;21003;-83
2021/10/19 03:07:49;;;;;;;26.17;12.70;;;;;;;8.41;74.65;101337.34;1783906;80;20987;-83
2021/10/19 03:10:15;;;;;;;23.20;13.98;;;;;;;8.37;74.69;101336.77;1784090;80;21033;-83
2021/10/19 03:12:41;;;;;;;26.65;14.70;;;;;;;8.36;74.70;101328.47;1784064;80;21014;-83
2021/10/19 03:15:07;;;;;;;22.87;14.18;;;;;;;8.34;74.72;101327.73;1784243;80;21027;-83
2021/10/19 03:17:33;;;;;;;23.30;13.90;;;;;;;8.33;74.74;101331.39;1790169;78;20953;-83
2021/10/19 03:19:59;;;;;;;25.57;13.55;;;;;;;8.29;74.76;101322.00;1807174;79;21488;-83
2021/10/19 03:22:25;;;;;;;52.30;23.85;;;;;;;8.27;74.79;101334.52;1807079;79;21123;-83
2021/10/19 03:24:51;;;;;;;28.35;15.10;;;;;;;8.26;74.81;101330.20;1807855;79;21051;-83
2021/10/19 03:27:17;;;;;;;17.57;11.48;;;;;;;8.25;74.81;101336.48;1807254;79;21476;-83
2021/10/19 03:29:44;;;;;;;20.15;12.25;;;;;;;8.21;74.84;101332.88;1807646;78;21548;-84
2021/10/19 03:32:10;;;;;;;25.45;11.40;;;;;;;8.20;74.87;101331.22;1807719;79;21004;-83
2021/10/19 03:34:36;;;;;;;17.92;11.68;;;;;;;8.20;74.87;101336.54;1807480;78;20988;-84
2021/10/19 03:37:03;;;;;;;17.50;10.23;;;;;;;8.18;74.90;101341.97;1806949;79;21602;-83
2021/10/19 03:39:29;;;;;;;27.02;11.88;;;;;;;8.15;74.93;101345.37;1807238;79;21015;-83
2021/10/19 03:41:55;;;;;;;15.70;10.65;;;;;;;8.13;74.97;101348.15;1807141;79;20948;-83
2021/10/19 03:44:21;;;;;;;17.98;11.12;;;;;;;8.12;74.98;101341.17;1807430;79;20976;-83
2021/10/19 03:46:47;;;;;;;18.17;11.68;;;;;;;8.14;75.03;101336.56;1787142;79;21104;-83
2021/10/19 03:49:13;;;;;;;16.50;11.22;;;;;;;8.15;75.05;101342.23;1784149;80;21054;-83
2021/10/19 03:51:39;;;;;;;26.15;15.25;;;;;;;8.16;75.05;101340.42;1784038;80;20987;-83
2021/10/19 03:54:05;;;;;;;26.50;15.32;;;;;;;8.15;75.09;101339.58;1784269;80;21034;-83
2021/10/19 03:56:31;;;;;;;20.32;12.55;;;;;;;8.18;75.10;101340.64;1798977;79;21567;-83
2021/10/19 03:58:57;;;;;;;25.52;15.32;;;;;;;8.20;75.09;101332.55;1816284;79;21665;-83
2021/10/19 04:01:23;;;;;;;23.73;14.15;;;;;;;8.19;75.11;101330.86;1816191;79;21019;-83
2021/10/19 04:03:49;;;;;;;34.08;17.90;;;;;;;8.17;75.14;101336.29;1816107;79;20979;-83
2021/10/19 04:06:15;;;;;;;28.65;16.32;;;;;;;8.17;75.16;101320.83;1816325;79;21011;-82
2021/10/19 04:08:41;;;;;;;21.73;12.55;;;;;;;8.12;75.19;101306.64;1816543;79;21050;-83
2021/10/19 04:11:07;;;;;;;24.30;13.58;;;;;;;8.08;75.22;101302.56;1816373;79;21054;-83
2021/10/19 04:13:33;;;;;;;19.35;12.18;;;;;;;8.06;75.25;101307.66;1816211;79;21463;-83
2021/10/19 04:15:59;;;;;;;19.85;12.05;;;;;;;8.02;75.29;101299.11;1749309;82;21046;-83
2021/10/19 04:18:25;;;;;;;24.87;14.45;;;;;;;7.98;75.31;101300.34;1749154;82;20996;-83
2021/10/19 04:20:51;;;;;;;20.35;12.88;;;;;;;7.95;75.34;101301.94;1749030;82;21062;-83
2021/10/19 04:23:17;;;;;;;23.30;14.23;;;;;;;7.89;75.38;101297.97;1749016;82;21122;-83
2021/10/19 04:25:43;;;;;;;22.35;13.00;;;;;;;7.86;75.39;101302.70;1747801;81;21357;-83
2021/10/19 04:28:09;;;;;;;19.95;12.68;;;;;;;7.82;75.44;101299.94;1722802;83;21000;-83
2021/10/19 04:30:37;;;;;;;30.12;14.28;;;;;;;7.78;75.46;101302.50;1724008;82;21012;-83
2021/10/19 04:33:03;;;;;;;22.62;12.70;;;;;;;7.73;75.52;101306.05;1722619;82;21562;-83
2021/10/19 04:35:29;;;;;;;20.82;12.05;;;;;;;7.70;75.55;101310.29;1724057;81;22048;-83
2021/10/19 04:37:55;;;;;;;22.30;12.73;;;;;;;7.68;75.60;101297.61;1724008;83;20972;-83
2021/10/19 04:40:21;;;;;;;25.82;13.45;;;;;;;7.62;75.63;101296.80;1723828;82;21130;-83
2021/10/19 04:42:47;;;;;;;19.87;12.80;;;;;;;7.58;75.69;101294.05;1724166;82;21504;-83
2021/10/19 04:45:16;;;;;;;24.02;13.13;;;;;;;7.54;75.75;101294.31;1724196;83;21056;-84
2021/10/19 04:47:41;;;;;;;21.62;13.48;;;;;;;7.53;75.80;101287.31;1723960;82;21511;-83
2021/10/19 04:50:08;;;;;;;26.73;14.47;;;;;;;7.51;75.85;101294.58;1724309;82;21567;-83
2021/10/19 04:52:34;;;;;;;26.37;14.05;;;;;;;7.49;75.88;101287.20;1724044;82;21031;-83
2021/10/19 04:55:00;;;;;;;30.72;15.80;;;;;;;7.47;75.93;101281.67;1724221;83;21905;-83
2021/10/19 04:57:26;;;;;;;32.15;16.17;;;;;;;7.44;75.98;101273.98;1724268;83;21484;-83
2021/10/19 04:59:52;;;;;;;37.10;16.35;;;;;;;7.45;76.02;101287.61;1695549;84;21088;-83
2021/10/19 05:02:18;;;;;;;27.05;14.63;;;;;;;7.42;76.08;101284.70;1695176;83;21494;-83
2021/10/19 05:04:44;;;;;;;28.42;15.18;;;;;;;7.41;76.12;101284.85;1695453;83;21590;-83
2021/10/19 05:07:11;;;;;;;29.77;13.50;;;;;;;7.40;76.19;101282.68;1724044;83;21031;-83
2021/10/19 05:09:37;;;;;;;24.90;13.03;;;;;;;7.41;76.24;101287.03;1695216;84;20987;-83
2021/10/19 05:12:03;;;;;;;26.40;14.38;;;;;;;7.42;76.30;101296.65;1695217;84;21600;-83
2021/10/19 05:14:29;;;;;;;23.20;13.72;;;;;;;7.43;76.33;101296.16;1695344;84;21067;-83
2021/10/19 05:16:55;;;;;;;16.90;11.25;;;;;;;7.43;76.37;101302.32;1724286;83;21000;-83
2021/10/19 05:19:21;;;;;;;26.77;14.20;;;;;;;7.45;76.41;101307.03;1695334;83;21091;-83
2021/10/19 05:21:47;;;;;;;22.05;13.18;;;;;;;7.48;76.45;101298.81;1695105;83;21474;-83
2021/10/19 05:24:13;;;;;;;26.95;14.13;;;;;;;7.48;76.47;101300.14;1703089;83;21867;-83
2021/10/19 05:26:39;;;;;;;23.50;13.72;;;;;;;7.48;76.49;101299.30;1723754;81;20900;-83
2021/10/19 05:29:05;;;;;;;24.47;13.20;;;;;;;7.47;76.54;101305.08;1689858;85;21031;-83
2021/10/19 05:31:31;;;;;;;19.48;12.20;;;;;;;7.45;76.58;101293.77;1723687;83;21043;-83
2021/10/19 05:33:58;;;;;;;21.62;12.10;;;;;;;7.47;76.61;101286.98;1689713;85;21137;-83
2021/10/19 05:36:24;;;;;;;22.65;12.73;;;;;;;7.48;76.64;101289.52;1724006;82;21782;-82
2021/10/19 05:38:50;;;;;;;94.67;44.98;;;;;;;7.50;76.67;101285.40;1689715;85;21084;-83
2021/10/19 05:41:16;;;;;;;27.22;17.75;;;;;;;7.50;76.72;101275.62;1718391;83;21503;-83
2021/10/19 05:43:45;;;;;;;23.85;16.62;;;;;;;7.54;76.72;101279.71;1718218;83;21019;-82
2021/10/19 05:46:12;;;;;;;22.65;12.60;;;;;;;7.59;76.74;101270.05;1720915;82;21027;-83
2021/10/19 05:48:39;;;;;;;21.17;12.63;;;;;;;7.66;76.76;101279.66;1718291;83;21152;-83
2021/10/19 05:51:05;;;;;;;20.00;12.10;;;;;;;7.73;76.78;101289.62;1720162;82;21094;-83
2021/10/19 05:53:31;;;;;;;18.75;12.28;;;;;;;7.78;76.79;101280.77;1722329;82;21508;-83
2021/10/19 05:55:57;;;;;;;20.75;11.80;;;;;;;7.85;76.80;101282.41;1719991;82;20991;-83
2021/10/19 05:58:23;;;;;;;23.42;13.48;;;;;;;7.91;76.81;101279.27;1722756;82;21019;-83
2021/10/19 06:00:50;;;;;;;24.23;14.50;;;;;;;7.93;76.82;101286.59;1718311;83;21177;-84
2021/10/19 06:03:16;;;;;;;21.75;12.35;;;;;;;7.96;76.81;101285.84;1722958;82;21008;-83
2021/10/19 06:05:42;;;;;;;22.05;12.53;;;;;;;7.98;76.81;101291.04;1693822;83;21520;-83
2021/10/19 06:08:08;;;;;;;23.87;13.62;;;;;;;7.99;76.83;101290.05;1723655;83;21596;-83
2021/10/19 06:10:35;;;;;;;20.85;13.25;;;;;;;8.03;76.81;101300.77;1703782;83;21047;-84
2021/10/19 06:13:01;;;;;;;21.85;14.07;;;;;;;8.08;76.84;101304.37;1724062;82;21142;-83
2021/10/19 06:15:27;;;;;;;23.05;14.47;;;;;;;8.11;76.84;101304.95;1724117;82;21023;-84
2021/10/19 06:17:54;;;;;;;21.02;13.15;;;;;;;8.15;76.83;101296.23;1724110;82;21035;-83
2021/10/19 06:20:20;;;;;;;29.72;14.80;;;;;;;8.20;76.83;101290.86;1724133;83;21608;-83
2021/10/19 06:22:46;;;;;;;22.35;13.30;;;;;;;8.27;76.80;101288.53;1723973;83;21476;-83
2021/10/19 06:25:12;;;;;;;24.10;12.43;;;;;;;8.35;76.79;101292.22;1724080;82;21710;-83
2021/10/19 06:27:38;;;;;;;21.97;13.30;;;;;;;8.47;76.75;101287.66;1738971;81;21003;-83
2021/10/19 06:30:06;;;;;;;23.42;12.65;;;;;;;8.56;76.72;101282.85;1815816;79;21011;-83
2021/10/19 06:32:32;;;;;;;23.77;13.00;;;;;;;8.67;76.67;101281.91;1810085;78;21043;-82
2021/10/19 06:34:58;;;;;;;19.80;12.35;;;;;;;8.74;76.64;101272.41;1764802;79;21549;-82
2021/10/19 06:37:24;;;;;;;19.00;12.35;;;;;;;8.75;76.59;101271.44;1762674;81;21685;-82
2021/10/19 06:39:50;;;;;;;20.12;12.75;;;;;;;8.77;76.56;101272.97;1762079;81;20995;-81
2021/10/19 06:42:16;;;;;;;26.25;14.25;;;;;;;8.78;76.53;101265.84;1762110;80;21012;-81
2021/10/19 06:44:42;;;;;;;22.35;13.18;;;;;;;8.81;76.51;101272.21;1788292;78;21011;-81
2021/10/19 06:47:08;;;;;;;28.02;15.63;;;;;;;8.86;76.45;101281.96;1815807;79;21035;-81
2021/10/19 06:49:34;;;;;;;22.15;13.88;;;;;;;8.91;76.40;101273.06;1815432;78;21130;-81
2021/10/19 06:52:00;;;;;;;25.02;15.55;;;;;;;8.95;76.35;101274.47;1732256;82;21109;-82
2021/10/19 06:54:26;;;;;;;27.27;15.95;;;;;;;9.01;76.33;101273.91;1749063;82;21051;-81
2021/10/19 06:56:53;;;;;;;22.07;14.58;;;;;;;9.06;76.27;101276.16;1741640;81;21006;-83
2021/10/19 06:59:19;;;;;;;25.17;14.05;;;;;;;9.05;76.22;101279.31;1741575;81;21056;-82
2021/10/19 07:01:45;;;;;;;25.97;13.28;;;;;;;9.06;76.16;101281.00;1742118;81;21150;-83
2021/10/19 07:04:11;;;;;;;21.85;14.00;;;;;;;9.09;76.11;101281.20;1747463;80;21032;-82
2021/10/19 07:06:37;;;;;;;32.85;13.60;;;;;;;9.09;76.07;101279.39;1746784;81;21113;-82
2021/10/19 07:09:03;;;;;;;20.52;13.50;;;;;;;9.09;76.01;101279.39;1736310;81;21600;-83
2021/10/19 07:11:30;;;;;;;21.42;13.22;;;;;;;9.15;75.97;101278.83;1742168;82;21539;-84
2021/10/19 07:13:56;;;;;;;25.52;14.53;;;;;;;9.21;75.97;101278.78;1800974;78;21298;-84
2021/10/19 07:16:23;;;;;;;18.98;12.55;;;;;;;9.28;75.90;101281.23;1801602;78;21010;-84
2021/10/19 07:18:49;;;;;;;23.80;14.07;;;;;;;9.35;75.88;101282.35;1805965;78;21026;-83
2021/10/19 07:21:15;;;;;;;24.05;14.38;;;;;;;9.38;75.80;101276.74;1792746;78;21080;-85
2021/10/19 07:23:41;;;;;;;19.02;13.62;;;;;;;9.40;75.76;101270.28;1804970;78;21539;-84
2021/10/19 07:26:07;;;;;;;22.65;13.32;;;;;;;9.48;75.69;101274.42;1806776;78;21444;-84
2021/10/19 07:28:33;;;;;;;23.62;13.28;;;;;;;9.58;75.65;101270.90;1818635;77;21454;-85
2021/10/19 07:30:59;;;;;;;25.88;13.90;;;;;;;9.64;75.59;101274.35;1795184;77;21015;-84
2021/10/19 07:33:25;;;;;;;24.50;13.85;;;;;;;9.71;75.55;101274.13;1799457;77;21047;-84
2021/10/19 07:35:51;;;;;;;21.48;13.55;;;;;;;9.80;75.49;101269.26;1797264;79;21030;-83
2021/10/19 07:38:17;;;;;;;23.85;13.05;;;;;;;9.86;75.45;101268.19;1794131;78;21448;-83
2021/10/19 07:40:43;;;;;;;23.12;12.53;;;;;;;9.92;75.41;101266.27;1779537;78;20975;-83
2021/10/19 07:43:09;;;;;;;18.90;13.28;;;;;;;10.00;75.37;101266.39;1776625;79;21168;-83
2021/10/19 07:45:36;;;;;;;20.90;12.30;;;;;;;10.09;75.29;101273.19;1775315;80;21027;-83
2021/10/19 07:48:02;;;;;;;27.40;12.73;;;;;;;10.21;75.25;101268.88;1764331;79;21534;-81
2021/10/19 07:50:30;;;;;;;21.05;12.75;;;;;;;10.28;75.13;101272.64;1832021;77;21179;-82
2021/10/19 07:52:58;;;;;;;19.20;11.83;;;;;;;10.38;75.12;101276.59;1783650;79;21003;-82
2021/10/19 07:55:24;;;;;;;21.97;12.40;;;;;;;10.43;75.04;101279.18;1781951;79;21024;-82
2021/10/19 07:57:53;;;;;;;20.20;11.95;;;;;;;10.49;75.01;101272.41;1801617;77;21038;-81
2021/10/19 08:00:27;;;;;;;27.82;15.00;;;;;;;10.53;74.94;101269.30;1781391;79;21050;-83
2021/10/19 08:02:54;;;;;;;30.35;16.60;;;;;;;10.57;74.85;101269.00;1775979;80;21655;-81
2021/10/19 08:05:20;;;;;;;18.25;11.33;;;;;;;10.64;74.77;101268.75;1808561;78;20996;-82
2021/10/19 08:07:48;;;;;;;15.70;11.18;;;;;;;10.71;74.68;101267.17;1801576;79;20983;-81
2021/10/19 08:10:19;;;;;;;20.10;11.10;;;;;;;10.77;74.59;101267.41;1782590;79;21539;-82
2021/10/19 08:12:45;;;;;;;17.35;10.50;;;;;;;10.83;74.54;101256.16;1800055;79;21285;-82
2021/10/19 08:15:12;;;;;;;19.12;10.25;;;;;;;10.93;74.44;101252.08;1791548;79;21154;-81
2021/10/19 08:17:38;;;;;;;18.70;11.22;;;;;;;10.99;74.38;101262.14;1732827;82;21056;-82
2021/10/19 08:20:06;;;;;;;17.15;10.23;;;;;;;11.11;74.31;101258.27;1732001;82;21009;-81
2021/10/19 08:22:33;;;;;;;15.53;10.48;;;;;;;11.24;74.23;101261.39;1743562;82;21022;-83
2021/10/19 08:25:01;;;;;;;18.12;10.70;;;;;;;11.31;74.13;101251.77;1724298;82;20982;-79
2021/10/19 08:27:27;;;;;;;16.73;10.40;;;;;;;11.45;74.05;101252.56;1721565;83;21354;-80
2021/10/19 08:29:53;;;;;;;17.37;10.20;;;;;;;11.58;73.96;101253.48;1725194;81;21008;-80
2021/10/19 08:32:19;;;;;;;18.90;11.40;;;;;;;11.71;73.88;101246.45;1788033;78;21005;-79
2021/10/19 08:34:46;;;;;;;21.05;12.50;;;;;;;11.68;73.74;101244.87;1785275;78;21046;-79
2021/10/19 08:37:12;;;;;;;18.45;10.70;;;;;;;11.69;73.63;101244.38;1729716;82;21570;-80
2021/10/19 08:39:38;;;;;;;16.95;10.50;;;;;;;11.74;73.55;101247.47;1747432;82;22083;-80
2021/10/19 08:42:04;;;;;;;19.98;11.20;;;;;;;11.79;73.45;101245.14;1751680;80;21014;-80
2021/10/19 08:44:30;;;;;;;27.32;13.30;;;;;;;11.90;73.37;101235.53;1748504;80;21412;-81
2021/10/19 08:46:56;;;;;;;15.60;10.53;;;;;;;12.04;73.28;101238.95;1754626;80;21125;-80
2021/10/19 08:49:22;;;;;;;15.58;10.13;;;;;;;12.18;73.13;101231.67;1793880;79;21043;-80
2021/10/19 08:51:48;;;;;;;15.60;9.50;;;;;;;12.28;73.01;101233.72;1743870;82;22225;-80
2021/10/19 08:54:14;;;;;;;16.23;11.08;;;;;;;12.38;72.84;101226.94;1790830;78;21471;-80
2021/10/19 08:56:40;;;;;;;22.42;11.08;;;;;;;12.50;72.71;101230.48;1747224;80;21330;-80
2021/10/19 08:59:07;;;;;;;17.65;10.05;;;;;;;12.65;72.56;101225.84;1815244;79;21101;-80
2021/10/19 09:01:37;;;;;;;18.32;10.10;;;;;;;12.77;72.40;101217.33;1808696;78;21073;-79
2021/10/19 09:04:12;;;;;;;16.10;10.38;;;;;;;12.83;72.14;101218.53;1820329;78;21758;-80
2021/10/19 09:06:40;;;;;;;13.62;9.65;;;;;;;12.84;71.96;101217.01;1777200;80;21519;-79
2021/10/19 09:09:10;;;;;;;18.42;10.08;;;;;;;12.82;71.76;101219.52;1809804;78;21058;-80
2021/10/19 09:11:41;;;;;;;21.65;9.90;;;;;;;12.91;71.63;101219.89;1821518;78;21003;-80
2021/10/19 09:14:10;;;;;;;15.98;10.05;;;;;;;12.98;71.50;101229.75;1790576;78;21014;-79
2021/10/19 09:16:48;;;;;;;13.72;10.00;;;;;;;13.03;71.32;101234.63;1797093;78;21345;-79
2021/10/19 09:19:17;;;;;;;14.55;9.88;;;;;;;13.09;71.19;101240.67;1788908;78;21053;-80
2021/10/19 09:21:44;;;;;;;16.05;9.13;;;;;;;13.12;71.04;101236.36;1794931;78;21659;-80
2021/10/19 09:24:28;;;;;;;16.48;9.48;;;;;;;13.12;70.92;101233.67;1771638;80;21090;-81
2021/10/19 09:27:07;;;;;;;13.58;9.05;;;;;;;13.16;70.83;101229.64;1773377;80;21685;-81
2021/10/19 09:29:38;;;;;;;15.63;9.83;;;;;;;13.25;70.67;101209.91;1789712;79;21912;-81
2021/10/19 09:32:09;;;;;;;14.10;9.15;;;;;;;13.28;70.53;101214.92;1716650;82;21018;-80
2021/10/19 09:34:34;;;;;;;12.20;9.20;;;;;;;13.35;70.46;101209.23;1728558;83;21034;-80
2021/10/19 09:37:01;;;;;;;17.07;11.20;;;;;;;13.39;70.30;101217.27;1720265;83;21595;-79
2021/10/19 09:39:39;;;;;;;15.15;10.48;;;;;;;13.57;70.21;101217.09;1753170;80;21102;-80
2021/10/19 09:42:08;;;;;;;19.70;12.88;;;;;;;13.74;70.10;101209.86;1733732;81;21873;-81
2021/10/19 09:44:35;;;;;;;18.17;12.63;;;;;;;13.95;69.99;101215.50;1769557;81;26373;-81
2021/10/19 09:47:01;;;;;;;38.25;23.98;;;;;;;14.13;69.86;101217.47;1769747;81;21011;-81
2021/10/19 09:49:28;;;;;;;39.13;18.80;;;;;;;14.27;69.73;101208.69;1768904;81;20995;-79
2021/10/19 09:51:57;;;;;;;46.55;20.35;;;;;;;14.36;69.51;101194.25;1769616;81;21051;-80
2021/10/19 09:54:28;;;;;;;62.90;26.50;;;;;;;14.41;69.30;101186.52;1772069;78;21785;-80
2021/10/19 09:56:58;;;;;;;37.90;15.90;;;;;;;14.45;69.11;101181.14;1747508;81;21050;-80
2021/10/19 09:59:24;;;;;;;39.98;17.87;;;;;;;14.48;68.90;101194.20;1758439;81;21124;-79
2021/10/19 10:01:50;;;;;;;24.50;12.10;;;;;;;14.54;68.72;101186.44;1767392;80;21156;-81
2021/10/19 10:04:17;;;;;;;13.00;7.00;;;;;;;14.59;68.53;101182.73;1769665;81;20995;-81
2021/10/19 10:06:43;;;;;;;28.40;13.22;;;;;;;14.61;68.30;101190.09;1717084;80;21141;-81
2021/10/19 10:09:09;;;;;;;13.78;7.72;;;;;;;14.56;68.09;101184.44;1769891;79;21032;-81
2021/10/19 10:11:40;;;;;;;10.98;8.05;;;;;;;14.60;67.85;101176.36;1769460;81;21031;-81
2021/10/19 10:14:07;;;;;;;14.45;8.88;;;;;;;14.53;67.56;101171.38;1769568;81;21035;-81
2021/10/19 10:16:49;;;;;;;10.58;8.10;;;;;;;14.51;67.33;101170.19;1769853;81;21040;-81
2021/10/19 10:19:18;;;;;;;12.95;9.53;;;;;;;14.46;67.13;101166.69;1780098;79;21543;-80
2021/10/19 10:21:52;;;;;;;15.65;9.13;;;;;;;14.49;66.97;101162.30;1769674;81;21039;-81
2021/10/19 10:24:32;;;;;;;10.25;7.12;;;;;;;14.60;66.88;101165.63;1779675;78;21077;-81
2021/10/19 10:27:14;;;;;;;15.90;9.63;;;;;;;14.65;66.72;101165.91;1801298;79;21035;-81
2021/10/19 10:29:47;;;;;;;11.90;7.95;;;;;;;14.66;66.56;101164.91;1706829;81;21067;-81
2021/10/19 10:32:35;;;;;;;11.90;8.25;;;;;;;14.68;66.44;101161.52;1781061;80;21311;-81
2021/10/19 10:35:10;;;;;;;11.30;8.18;;;;;;;14.75;66.36;101154.43;1741759;80;21045;-81
2021/10/19 10:37:51;;;;;;;16.90;10.38;;;;;;;14.80;66.28;101170.86;1780840;80;21035;-80
2021/10/19 10:40:38;;;;;;;18.12;7.83;;;;;;;14.80;66.10;101173.55;1780663;80;21032;-81
2021/10/19 10:43:27;;;;;;;15.60;9.15;;;;;;;14.81;65.96;101166.63;1780895;80;21053;-81
2021/10/19 10:46:06;;;;;;;10.82;7.25;;;;;;;14.90;65.56;101158.02;1779655;80;21062;-81
2021/10/19 10:48:34;;;;;;;10.32;7.62;;;;;;;14.90;65.56;101158.02;1791314;78;21041;-81
2021/10/19 10:51:02;;;;;;;12.47;7.97;;;;;;;14.95;65.34;101161.83;1795923;79;21003;-80
2021/10/19 10:53:37;;;;;;;14.45;7.90;;;;;;;14.96;65.16;101158.13;1796685;79;21098;-81
2021/10/19 10:56:03;;;;;;;12.90;7.65;;;;;;;14.97;65.08;101138.33;1781042;80;21551;-81
2021/10/19 10:58:36;;;;;;;10.95;7.75;;;;;;;14.90;64.98;101106.99;1780541;80;21815;-80
2021/10/19 11:01:19;;;;;;;14.50;8.70;;;;;;;15.07;64.85;101112.55;1780815;80;21549;-81
2021/10/19 11:03:49;;;;;;;7.62;6.12;;;;;;;15.15;64.74;101107.11;1754026;80;20999;-80
2021/10/19 11:06:17;;;;;;;9.28;6.83;;;;;;;15.28;64.64;101108.66;1780050;80;21012;-80
2021/10/19 11:08:44;;;;;;;9.30;6.55;;;;;;;15.46;64.24;101114.52;1781370;79;21038;-81
2021/10/19 11:11:18;;;;;;;9.03;6.85;;;;;;;15.46;64.24;101114.52;1755293;80;21811;-80
2021/10/19 11:13:54;;;;;;;9.90;7.00;;;;;;;15.42;64.26;101109.69;1780886;80;21047;-80
2021/10/19 11:16:42;;;;;;;11.57;6.58;;;;;;;15.27;64.20;101093.53;1733934;81;21019;-80